Time;durP1;ratioP1;P1;durP2;ratioP2;P2;SDS_P1;SDS_P2;PMS_P1;PMS_P2;Temp;Humidity;BMP_temperature;BMP_pressure;BME280_temperature;BME280_humidity;BME280_pressure;Samples;Min_cycle;Max_cycle;Signal;HPM_P1;HPM_P2
2023/06/12 00:00:43;;;;;;;;;;;;;;;21.84;100.00;99408.22;5025917;28;19916;-75
2023/06/12 00:03:09;;;;;;;;;;;;;;;21.87;100.00;99405.06;5040979;28;20321;-72
2023/06/12 00:05:38;;;;;;;;;;;;;;;21.87;100.00;99402.41;5038750;28;20297;-73
2023/06/12 00:08:05;;;;;;;;;;;;;;;21.78;100.00;99412.59;5039040;28;19917;-76
2023/06/12 00:10:31;;;;;;;;;;;;;;;21.73;100.00;99414.28;5039600;28;19920;-74
2023/06/12 00:12:56;;;;;;;;;;;;;;;21.71;100.00;99411.00;5041435;28;20015;-74
2023/06/12 00:15:21;;;;;;;;;;;;;;;21.74;100.00;99413.22;5039763;28;19971;-75
2023/06/12 00:17:48;;;;;;;;;;;;;;;21.79;100.00;99416.13;5018927;28;19975;-74
2023/06/12 00:20:13;;;;;;;;;;;;;;;21.81;100.00;99414.00;5041139;28;19948;-73
2023/06/12 00:22:40;;;;;;;;;;;;;;;21.78;100.00;99419.84;5041265;28;19918;-73
2023/06/12 00:25:08;;;;;;;;;;;;;;;21.71;100.00;99422.56;5037642;28;19923;-73
2023/06/12 00:27:34;;;;;;;;;;;;;;;21.71;100.00;99419.06;5041945;28;20290;-75
2023/06/12 00:30:00;;;;;;;;;;;;;;;21.71;100.00;99421.75;5037352;28;19917;-73
2023/06/12 00:32:25;;;;;;;;;;;;;;;21.61;100.00;99425.75;5030564;28;20383;-75
2023/06/12 00:34:51;;;;;;;;;;;;;;;21.60;100.00;99418.72;5041404;28;19921;-75
2023/06/12 00:37:17;;;;;;;;;;;;;;;21.52;100.00;99424.34;5042741;28;19929;-73
2023/06/12 00:39:46;;;;;;;;;;;;;;;21.50;100.00;99434.47;5041798;28;19971;-74
2023/06/12 00:42:11;;;;;;;;;;;;;;;21.47;100.00;99429.53;5043122;28;20049;-74
2023/06/12 00:44:37;;;;;;;;;;;;;;;21.44;100.00;99435.31;5025035;28;19952;-75
2023/06/12 00:47:03;;;;;;;;;;;;;;;21.44;100.00;99429.94;5042435;28;19916;-74
2023/06/12 00:49:28;;;;;;;;;;;;;;;21.45;100.00;99431.59;5018153;28;19947;-74
2023/06/12 00:51:55;;;;;;;;;;;;;;;21.46;100.00;99427.88;5039737;28;19921;-74
2023/06/12 00:54:21;;;;;;;;;;;;;;;21.43;100.00;99428.34;5021088;28;19931;-73
2023/06/12 00:56:48;;;;;;;;;;;;;;;21.36;100.00;99430.22;5039033;28;19925;-75
2023/06/12 00:59:16;;;;;;;;;;;;;;;21.30;100.00;99425.72;5018632;28;19920;-75
2023/06/12 01:01:42;;;;;;;;;;;;;;;21.32;100.00;99425.50;5040512;28;20356;-75
2023/06/12 01:04:09;;;;;;;;;;;;;;;21.22;100.00;99420.59;5022484;28;20011;-75
2023/06/12 01:06:43;;;;;;;;;;;;;;;21.21;100.00;99429.66;5025027;28;20381;-74
2023/06/12 01:09:16;;;;;;;;;;;;;;;21.19;100.00;99427.22;5017921;28;19952;-74
2023/06/12 01:11:43;;;;;;;;;;;;;;;21.13;100.00;99422.69;5036484;28;19923;-73
2023/06/12 01:14:08;;;;;;;;;;;;;;;21.10;100.00;99433.81;5016187;28;19917;-74
2023/06/12 01:16:34;;;;;;;;;;;;;;;21.11;100.00;99429.28;5024703;28;19943;-73
2023/06/12 01:19:01;;;;;;;;;;;;;;;21.11;100.00;99435.47;5039778;28;19921;-74
2023/06/12 01:21:32;;;;;;;;;;;;;;;21.12;100.00;99430.94;5026819;28;20443;-73
2023/06/12 01:24:08;;;;;;;;;;;;;;;21.16;100.00;99437.53;5025319;28;20335;-76
2023/06/12 01:26:51;;;;;;;;;;;;;;;21.14;100.00;99434.25;5046228;28;20445;-73
2023/06/12 01:29:32;;;;;;;;;;;;;;;21.14;100.00;99434.25;5023911;28;19974;-72
2023/06/12 01:31:59;;;;;;;;;;;;;;;21.12;100.00;99422.88;5020858;28;19960;-74
2023/06/12 01:34:50;;;;;;;;;;;;;;;21.09;100.00;99432.19;5030637;28;20361;-74
2023/06/12 01:37:22;;;;;;;;;;;;;;;21.11;100.00;99429.28;5018031;28;20424;-74
2023/06/12 01:39:57;;;;;;;;;;;;;;;21.10;100.00;99427.63;5043284;28;20449;-74
2023/06/12 01:42:24;;;;;;;;;;;;;;;21.04;100.00;99423.13;5025479;28;19917;-74
2023/06/12 01:44:50;;;;;;;;;;;;;;;20.88;100.00;99423.59;5024833;28;19925;-74
2023/06/12 01:47:16;;;;;;;;;;;;;;;20.78;100.00;99430.25;5023179;28;19924;-74
2023/06/12 01:49:42;;;;;;;;;;;;;;;20.79;100.00;99423.84;5021231;28;20063;-74
2023/06/12 01:52:08;;;;;;;;;;;;;;;20.78;100.00;99424.91;5043315;28;20008;-73
2023/06/12 01:54:35;;;;;;;;;;;;;;;20.73;100.00;99416.66;5024037;28;19916;-75
2023/06/12 01:57:02;;;;;;;;;;;;;;;20.75;100.00;99419.13;5026787;28;19921;-74
2023/06/12 01:59:34;;;;;;;;;;;;;;;20.73;100.00;99422.03;5019313;28;20011;-74
2023/06/12 02:02:03;;;;;;;;;;;;;;;20.74;100.00;99420.97;5030093;28;19923;-74
2023/06/12 02:04:29;;;;;;;;;;;;;;;20.74;100.00;99412.91;5041399;28;19923;-75
2023/06/12 02:06:57;;;;;;;;;;;;;;;20.73;100.00;99411.31;5022766;28;19924;-75
2023/06/12 02:09:22;;;;;;;;;;;;;;;20.71;100.00;99408.00;5044153;28;19917;-73
2023/06/12 02:11:48;;;;;;;;;;;;;;;20.67;100.00;99404.09;5027060;28;19916;-75
2023/06/12 02:14:15;;;;;;;;;;;;;;;20.65;100.00;99403.47;5022588;28;20022;-75
2023/06/12 02:16:41;;;;;;;;;;;;;;;20.59;100.00;99398.13;5028655;28;20335;-73
2023/06/12 02:19:07;;;;;;;;;;;;;;;20.58;100.00;99402.66;5037457;28;19921;-75
2023/06/12 02:21:33;;;;;;;;;;;;;;;20.54;100.00;99406.81;5023309;28;19917;-72
2023/06/12 02:23:58;;;;;;;;;;;;;;;20.55;100.00;99403.09;5027304;28;19917;-72
2023/06/12 02:26:26;;;;;;;;;;;;;;;20.52;100.00;99408.88;5023479;28;20266;-72
2023/06/12 02:29:09;;;;;;;;;;;;;;;20.51;100.00;99412.59;5023561;28;19923;-72
2023/06/12 02:31:37;;;;;;;;;;;;;;;20.50;100.00;99405.56;5025637;28;19966;-73
2023/06/12 02:34:03;;;;;;;;;;;;;;;20.47;100.00;99411.38;5022492;28;19960;-74
2023/06/12 02:36:29;;;;;;;;;;;;;;;20.45;100.00;99408.06;5022863;28;19917;-73
2023/06/12 02:38:55;;;;;;;;;;;;;;;20.48;100.00;99410.34;5010123;28;19917;-74
2023/06/12 02:41:21;;;;;;;;;;;;;;;20.42;100.00;99414.69;5022792;28;19959;-74
2023/06/12 02:43:46;;;;;;;;;;;;;;;20.42;100.00;99413.84;5040892;28;19956;-74
2023/06/12 02:46:12;;;;;;;;;;;;;;;20.41;100.00;99422.91;5039927;28;19917;-74
2023/06/12 02:48:38;;;;;;;;;;;;;;;20.40;100.00;99421.28;5029446;28;19916;-74
2023/06/12 02:51:03;;;;;;;;;;;;;;;20.44;100.00;99422.47;5025399;28;19996;-73
2023/06/12 02:53:29;;;;;;;;;;;;;;;20.40;100.00;99427.44;5026405;28;19974;-74
2023/06/12 02:55:54;;;;;;;;;;;;;;;20.37;100.00;99416.34;5045740;28;19963;-74
2023/06/12 02:58:20;;;;;;;;;;;;;;;20.40;100.00;99411.38;5039754;28;19932;-74
2023/06/12 03:00:46;;;;;;;;;;;;;;;20.43;100.00;99410.97;5021626;28;19924;-74
2023/06/12 03:03:12;;;;;;;;;;;;;;;20.47;100.00;99416.72;5024691;28;19917;-74
2023/06/12 03:05:38;;;;;;;;;;;;;;;20.51;100.00;99417.94;5024839;28;20091;-74
2023/06/12 03:08:04;;;;;;;;;;;;;;;20.49;100.00;99417.34;5044529;28;19916;-74
2023/06/12 03:10:30;;;;;;;;;;;;;;;20.32;100.00;99413.47;5023680;28;19923;-74
2023/06/12 03:12:56;;;;;;;;;;;;;;;20.23;100.00;99428.06;5024778;28;19917;-74
2023/06/12 03:15:22;;;;;;;;;;;;;;;20.24;100.00;99427.03;5021235;28;19963;-74
2023/06/12 03:17:48;;;;;;;;;;;;;;;20.30;100.00;99427.03;5041096;28;19917;-74
2023/06/12 03:20:14;;;;;;;;;;;;;;;20.29;100.00;99435.28;5027138;28;20008;-74
2023/06/12 03:22:40;;;;;;;;;;;;;;;20.29;100.00;99444.13;5023341;28;20004;-74
2023/06/12 03:25:07;;;;;;;;;;;;;;;20.12;100.00;99450.13;5039384;28;19917;-74
2023/06/12 03:27:35;;;;;;;;;;;;;;;20.00;100.00;99452.59;5021923;28;19923;-73
2023/06/12 03:30:00;;;;;;;;;;;;;;;19.94;100.00;99456.09;5017649;28;19917;-74
2023/06/12 03:32:27;;;;;;;;;;;;;;;19.84;100.00;99461.88;5025382;28;19924;-74
2023/06/12 03:34:56;;;;;;;;;;;;;;;19.67;100.00;99465.16;5022788;28;20113;-74
2023/06/12 03:37:23;;;;;;;;;;;;;;;19.69;100.00;99461.22;5025252;28;19917;-74
2023/06/12 03:39:50;;;;;;;;;;;;;;;19.61;100.00;99464.09;5026017;28;20393;-74
2023/06/12 03:42:16;;;;;;;;;;;;;;;19.57;100.00;99469.03;5021565;28;19978;-74
2023/06/12 03:44:50;;;;;;;;;;;;;;;19.61;100.00;99469.47;5017244;28;20305;-74
2023/06/12 03:47:16;;;;;;;;;;;;;;;19.61;100.00;99472.13;5016988;28;19916;-73
2023/06/12 03:49:42;;;;;;;;;;;;;;;19.59;100.00;99475.00;5025316;28;19996;-72
2023/06/12 03:52:09;;;;;;;;;;;;;;;19.49;100.00;99476.44;5027491;28;19923;-72
2023/06/12 03:54:35;;;;;;;;;;;;;;;19.33;100.00;99482.09;5024043;28;19916;-74
2023/06/12 03:57:01;;;;;;;6.57;4.90;;;;;;;19.25;100.00;99484.97;5029116;28;20023;-72
2023/06/12 03:59:26;;;;;;;6.13;4.90;;;;;;;19.17;100.00;99483.28;5039414;28;20824;-73
2023/06/12 04:01:53;;;;;;;5.50;4.60;;;;;;;19.13;100.00;99487.38;5039691;28;20394;-72
2023/06/12 04:04:18;;;;;;;5.45;4.68;;;;;;;19.17;100.00;99484.09;5020889;28;19923;-75
2023/06/12 04:06:45;;;;;;;5.40;4.90;;;;;;;19.22;100.00;99487.00;5019071;28;20513;-74
2023/06/12 04:09:15;;;;;;;8.50;5.80;;;;;;;19.19;100.00;99487.41;5023810;28;20028;-74
2023/06/12 04:11:42;;;;;;;6.03;5.30;;;;;;;19.23;100.00;99499.34;5039666;28;20041;-74
2023/06/12 04:14:08;;;;;;;5.28;4.88;;;;;;;19.20;100.00;99486.38;5040613;28;20037;-75
2023/06/12 04:16:34;;;;;;;5.32;4.93;;;;;;;19.29;100.00;99486.19;5024126;28;20044;-74
2023/06/12 04:19:03;;;;;;;5.82;4.85;;;;;;;19.37;100.00;99486.03;5020208;28;20095;-74
2023/06/12 04:21:32;;;;;;;5.18;4.68;;;;;;;19.44;100.00;99489.56;5020686;28;20060;-74
2023/06/12 04:24:01;;;;;;;5.80;5.32;;;;;;;19.46;100.00;99484.84;5038311;28;20112;-76
2023/06/12 04:26:27;;;;;;;5.10;4.60;;;;;;;19.48;100.00;99485.47;5024562;28;20021;-73
2023/06/12 04:28:54;;;;;;;5.43;4.55;;;;;;;19.39;100.00;99486.63;5038294;28;20025;-73
2023/06/12 04:31:26;;;;;;;5.38;4.88;;;;;;;19.30;100.00;99486.00;5030153;28;20059;-75
2023/06/12 04:33:54;;;;;;;6.25;5.07;;;;;;;19.05;100.00;99488.38;5020812;28;20029;-73
2023/06/12 04:36:21;;;;;;;6.13;5.43;;;;;;;19.04;100.00;99489.38;5024525;28;20033;-73
2023/06/12 04:38:50;;;;;;;5.93;5.20;;;;;;;19.06;100.00;99490.03;5042467;28;20098;-74
2023/06/12 04:41:27;;;;;;;7.95;5.38;;;;;;;19.01;100.00;99487.13;5018910;28;20371;-74
2023/06/12 04:43:58;;;;;;;5.60;5.10;;;;;;;19.06;100.00;99482.00;5012744;28;20366;-72
2023/06/12 04:46:28;;;;;;;;;;;;;;;19.09;100.00;99481.59;5016617;28;20029;-74
2023/06/12 04:48:53;;;;;;;;;;;;;;;19.16;100.00;99487.78;5021511;28;19964;-74
2023/06/12 04:51:19;;;;;;;;;;;;;;;19.23;100.00;99485.97;5023036;28;20015;-74
2023/06/12 04:53:47;;;;;;;;;;;;;;;19.29;100.00;99475.50;5040610;28;20406;-75
2023/06/12 04:56:20;;;;;;;;;;;;;;;19.32;100.00;99477.78;5027132;28;19917;-72
2023/06/12 04:58:46;;;;;;;;;;;;;;;19.33;100.00;99477.56;5022033;28;20007;-73
2023/06/12 05:01:12;;;;;;;;;;;;;;;19.37;100.00;99469.97;5021684;28;20012;-72
2023/06/12 05:03:40;;;;;;;;;;;;;;;19.42;100.00;99464.84;5023141;28;19916;-72
2023/06/12 05:06:06;;;;;;;;;;;;;;;19.47;100.00;99467.75;5014582;28;19916;-73
2023/06/12 05:08:35;;;;;;;;;;;;;;;19.50;100.00;99464.66;5043867;28;19939;-74
2023/06/12 05:11:00;;;;;;;;;;;;;;;19.59;100.00;99464.31;5027624;28;19916;-74
2023/06/12 05:13:25;;;;;;;;;;;;;;;19.64;100.00;99463.69;5042187;28;19924;-73
2023/06/12 05:15:51;;;;;;;;;;;;;;;19.70;100.00;99457.50;5040726;28;20490;-74
2023/06/12 05:18:16;;;;;;;;;;;;;;;19.79;100.00;99455.47;5028077;28;19925;-75
2023/06/12 05:20:42;;;;;;;;;;;;;;;19.73;100.00;99461.66;5043794;28;19917;-78
2023/06/12 05:23:07;;;;;;;;;;;;;;;19.70;100.00;99452.16;5030947;28;20395;-79
2023/06/12 05:25:33;;;;;;;;;;;;;;;19.71;100.00;99459.16;5014416;28;20293;-76
2023/06/12 05:28:00;;;;;;;;;;;;;;;19.73;100.00;99462.47;5045684;28;20315;-73
2023/06/12 05:30:25;;;;;;;;;;;;;;;19.75;100.00;99459.56;5042199;28;19971;-76
2023/06/12 05:32:51;;;;;;;;;;;;;;;19.82;100.00;99457.75;5027118;28;19917;-76
2023/06/12 05:35:17;;;;;;;;;;;;;;;19.85;100.00;99455.47;5042048;28;19960;-75
2023/06/12 05:37:43;;;;;;;;;;;;;;;19.88;100.00;99471.13;5046596;28;19952;-74
2023/06/12 05:40:09;;;;;;;;;;;;;;;19.88;100.00;99468.47;5022591;28;19924;-75
2023/06/12 05:42:36;;;;;;;;;;;;;;;19.80;100.00;99468.66;5045491;28;20084;-77
2023/06/12 05:45:02;;;;;;;;;;;;;;;19.78;100.00;99465.38;5022238;28;20345;-76
2023/06/12 05:47:28;;;;;;;;;;;;;;;19.79;100.00;99472.34;4694754;28;10000117;-74
2023/06/12 05:49:53;;;;;;;;;;;;;;;19.74;100.00;99474.81;4689639;28;10000315;-77
2023/06/12 05:52:19;;;;;;;;;;;;;;;19.74;100.00;99474.81;5025282;28;20032;-74
2023/06/12 05:54:45;;;;;;;;;;;;;;;19.79;100.00;99467.00;5024510;28;19924;-75
2023/06/12 05:57:13;;;;;;;;;;;;;;;19.85;100.00;99471.53;5044606;28;20292;-76
2023/06/12 05:59:40;;;;;;;;;;;;;;;19.90;100.00;99468.25;5045065;28;19963;-76
2023/06/12 06:02:07;;;;;;;;;;;;;;;19.94;100.00;99470.31;5030597;28;20288;-76
2023/06/12 06:04:32;;;;;;;;;;;;;;;19.91;100.00;99467.25;5023897;28;19917;-74
2023/06/12 06:06:57;;;;;;;;;;;;;;;19.97;100.00;99472.56;5040654;28;19924;-75
2023/06/12 06:09:23;;;;;;;;;;;;;;;19.97;100.00;99480.59;5025988;28;19993;-76
2023/06/12 06:11:49;;;;;;;;;;;;;;;20.04;100.00;99476.09;5044069;28;20003;-78
2023/06/12 06:14:17;;;;;;;;;;;;;;;20.02;100.00;99472.81;5021205;28;19984;-76
2023/06/12 06:16:42;;;;;;;;;;;;;;;20.04;100.00;99477.94;5021321;28;19924;-78
2023/06/12 06:19:09;;;;;;;;;;;;;;;20.07;100.00;99474.88;5023491;28;19921;-76
2023/06/12 06:21:35;;;;;;;;;;;;;;;19.89;100.00;99483.50;5043717;28;20273;-76
2023/06/12 06:24:00;;;;;;;;;;;;;;;19.80;100.00;99481.22;5041791;28;20280;-75
2023/06/12 06:26:27;;;;;;;;;;;;;;;19.71;100.00;99485.94;5030756;28;19917;-76
2023/06/12 06:28:52;;;;;;;;;;;;;;;19.55;100.00;99475.63;5041303;28;20287;-77
2023/06/12 06:31:19;;;;;;;;;;;;;;;19.50;100.00;99488.75;5025071;28;19917;-75
2023/06/12 06:33:44;;;;;;;;;;;;;;;19.50;100.00;99483.41;5041878;28;19916;-77
2023/06/12 06:36:10;;;;;;;;;;;;;;;19.62;100.00;99496.00;5037454;28;20377;-76
2023/06/12 06:38:35;;;;;;;;;;;;;;;19.71;100.00;99491.28;5024904;28;20015;-76
2023/06/12 06:41:01;;;;;;;;;;;;;;;19.81;100.00;99486.38;5041906;28;20335;-76
2023/06/12 06:43:29;;;;;;;;;;;;;;;19.84;100.00;99487.81;5024739;28;19916;-76
2023/06/12 06:45:56;;;;;;;;;;;;;;;19.95;100.00;99488.03;5025050;28;19923;-77
2023/06/12 06:48:22;;;;;;;;;;;;;;;19.94;100.00;99497.09;5022093;28;19916;-77
2023/06/12 06:50:47;;;;;;;;;;;;;;;19.91;100.00;99488.66;5020054;28;20058;-75
2023/06/12 06:53:13;;;;;;;;;;;;;;;19.79;100.00;99499.13;5040920;28;20015;-77
2023/06/12 06:55:42;;;;;;;;;;;;;;;19.72;100.00;99503.66;5040860;28;19917;-77
2023/06/12 06:58:08;;;;;;;;;;;;;;;19.81;100.00;99502.44;5025977;28;20003;-77
2023/06/12 07:00:34;;;;;;;;;;;;;;;19.78;100.00;99497.50;5021606;28;20334;-76
2023/06/12 07:02:59;;;;;;;;;;;;;;;19.79;100.00;99498.31;5022226;28;20001;-77
2023/06/12 07:05:27;;;;;;;;;;;;;;;19.68;100.00;99502.41;5026374;28;19937;-76
2023/06/12 07:07:53;;;;;;;;;;;;;;;19.67;100.00;99500.78;5039525;28;20380;-76
2023/06/12 07:10:19;;;;;;;;;;;;;;;19.65;100.00;99502.00;5026676;28;19917;-76
2023/06/12 07:12:44;;;;;;;;;;;;;;;19.63;100.00;99502.19;5039019;28;20325;-76
2023/06/12 07:15:10;;;;;;;;;;;;;;;19.61;100.00;99496.22;5026506;28;19925;-76
2023/06/12 07:17:39;;;;;;;;;;;;;;;19.70;100.00;99500.34;5023252;28;19917;-76
2023/06/12 07:20:06;;;;;;;;;;;;;;;19.68;100.00;99497.03;5030069;28;19974;-76
2023/06/12 07:22:31;;;;;;;;;;;;;;;19.76;100.00;99504.91;5030418;28;19921;-76
2023/06/12 07:24:57;;;;;;;;;;;;;;;19.80;100.00;99500.78;5022165;28;19921;-76
2023/06/12 07:27:23;;;;;;;;;;;;;;;19.88;100.00;99489.06;5021272;28;20547;-76
2023/06/12 07:29:48;;;;;;;;;;;;;;;19.85;100.00;99492.94;5037026;28;19925;-76
2023/06/12 07:32:14;;;;;;;;;;;;;;;19.94;100.00;99499.78;5040172;28;19923;-78
2023/06/12 07:34:39;;;;;;;;;;;;;;;19.94;100.00;99490.91;5023203;28;19916;-77
2023/06/12 07:37:07;;;;;;;;;;;;;;;19.94;100.00;99491.75;5025344;28;20055;-76
2023/06/12 07:39:32;;;;;;;;;;;;;;;19.96;100.00;99483.50;5035790;28;19917;-76
2023/06/12 07:42:01;;;;;;;;;;;;;;;19.78;100.00;99486.78;5023724;28;20074;-77
2023/06/12 07:44:28;;;;;;;;;;;;;;;19.77;100.00;99485.13;5025834;28;19921;-76
2023/06/12 07:46:53;;;;;;;;;;;;;;;19.79;100.00;99482.25;5042848;28;20288;-76
2023/06/12 07:49:19;;;;;;;;;;;;;;;19.72;100.00;99487.59;5035766;28;19928;-76
2023/06/12 07:51:45;;;;;;;;;;;;;;;19.85;100.00;99476.88;5021948;28;20003;-76
2023/06/12 07:54:12;;;;;;;;;;;;;;;20.04;100.00;99481.44;5018098;28;20017;-75
2023/06/12 07:56:39;;;;;;;;;;;;;;;20.08;100.00;99481.03;5040114;28;19971;-75
2023/06/12 07:59:11;;;;;;;;;;;;;;;20.11;100.00;99475.25;5036215;28;19921;-76
2023/06/12 08:01:40;;;;;;;;;;;;;;;20.24;100.00;99470.72;5040037;28;19912;-74
2023/06/12 08:04:11;;;;;;;;;;;;;;;20.42;100.00;99472.81;5041994;28;20328;-77
2023/06/12 08:06:42;;;;;;;;;;;;;;;20.56;100.00;99473.63;5038689;28;19917;-76
2023/06/12 08:09:09;;;;;;;;;;;;;;;20.57;100.00;99470.72;5038839;28;19921;-76
2023/06/12 08:11:35;;;;;;;;;;;;;;;20.75;100.00;99462.84;5031810;28;19942;-78
2023/06/12 08:14:01;;;;;;;;;;;;;;;20.82;100.00;99474.38;5021929;28;20447;-77
2023/06/12 08:16:30;;;;;;;;;;;;;;;20.74;100.00;99466.56;5039750;28;20285;-77
2023/06/12 08:18:56;;;;;;;;;;;;;;;20.73;100.00;99475.66;5043417;28;20268;-76
2023/06/12 08:21:27;;;;;;;;;;;;;;;20.76;100.00;99464.50;5006824;28;19921;-77
2023/06/12 08:23:52;;;;;;;;;;;;;;;20.85;100.00;99468.56;5017686;28;19917;-76
2023/06/12 08:26:19;;;;;;;;;;;;;;;20.93;100.00;99466.72;5015708;28;19986;-76
2023/06/12 08:28:51;;;;;;;;;;;;;;;21.00;100.00;99470.19;5015589;28;20389;-76
2023/06/12 08:31:19;;;;;;;;;;;;;;;21.06;100.00;99469.34;5016227;28;20044;-76
2023/06/12 08:33:45;;;;;;;;;;;;;;;21.13;100.00;99465.63;5018339;28;20024;-76
2023/06/12 08:36:12;;;;;;;;;;;;;;;21.09;100.00;99463.53;5020657;28;19921;-76
2023/06/12 08:38:38;;;;;;;;;;;;;;;20.99;100.00;99463.19;5017548;28;19917;-77
2023/06/12 08:41:05;;;;;;;;;;;;;;;21.09;100.00;99458.19;5021491;28;19924;-76
2023/06/12 08:43:32;;;;;;;;;;;;;;;21.18;100.00;99455.09;5025152;28;19917;-76
2023/06/12 08:46:00;;;;;;;;;;;;;;;21.23;100.00;99454.44;5029526;28;20280;-74
2023/06/12 08:48:27;;;;;;;;;;;;;;;21.33;100.00;99460.16;5024606;28;19944;-76
2023/06/12 08:50:52;;;;;;;;;;;;;;;21.32;100.00;99447.81;5019353;28;20354;-76
2023/06/12 08:53:18;;;;;;;;;;;;;;;21.30;100.00;99455.25;5022368;28;19960;-77
2023/06/12 08:55:44;;;;;;;;;;;;;;;21.36;100.00;99453.56;5026080;28;19913;-77
2023/06/12 08:58:10;;;;;;;;;;;;;;;21.41;100.00;99451.06;5022306;28;19939;-76
2023/06/12 09:00:36;;;;;;;;;;;;;;;21.43;100.00;99444.44;5022789;28;19913;-76
2023/06/12 09:03:04;;;;;;;;;;;;;;;21.37;100.00;99447.97;5024657;28;19917;-76
2023/06/12 09:05:33;;;;;;;;;;;;;;;21.48;100.00;99447.28;5022038;28;20297;-76
2023/06/12 09:08:05;;;;;;;;;;;;;;;21.51;100.00;99436.13;5024558;28;20332;-75
2023/06/12 09:10:31;;;;;;;;;;;;;;;21.55;100.00;99442.72;5019931;28;19921;-75
2023/06/12 09:12:57;;;;;;;;;;;;;;;21.49;100.00;99435.53;5024828;28;19940;-74
2023/06/12 09:15:23;;;;;;;;;;;;;;;21.44;100.00;99440.69;5025870;28;19916;-76
2023/06/12 09:17:49;;;;;;;;;;;;;;;21.56;100.00;99425.53;5025558;28;19917;-75
2023/06/12 09:20:22;;;;;;;;;;;;;;;21.70;100.00;99425.47;5025331;28;19917;-76
2023/06/12 09:22:53;;;;;;;;;;;;;;;21.84;100.00;99418.97;5040333;28;19969;-75
2023/06/12 09:25:20;;;;;;;;;;;;;;;21.98;100.00;99426.72;5042357;28;20335;-75
2023/06/12 09:27:45;;;;;;;;;;;;;;;22.12;100.00;99427.44;5042279;28;19917;-76
2023/06/12 09:30:11;;;;;;;;;;;;;;;22.24;100.00;99420.28;5025686;28;19923;-76
2023/06/12 09:32:37;;;;;;;;;;;;;;;22.35;100.00;99426.81;5020860;28;19969;-77
2023/06/12 09:35:03;;;;;;;;;;;;;;;22.49;100.00;99416.75;5040047;28;19920;-77
2023/06/12 09:37:29;;;;;;;;;;;;;;;22.60;100.00;99413.31;5041805;28;20001;-76
2023/06/12 09:40:11;;;;;;;;;;;;;;;22.69;100.00;99418.16;5038214;28;20365;-77
2023/06/12 09:42:37;;;;;;;;;;;;;;;22.81;100.00;99421.78;5041427;28;20019;-77
2023/06/12 09:45:12;;;;;;;;;;;;;;;22.94;100.00;99415.41;5041618;28;19916;-77
2023/06/12 09:47:46;;;;;;;4.35;3.95;;;;;;;23.12;100.00;99419.94;5039825;28;19928;-77
2023/06/12 09:50:13;;;;;;;4.10;3.60;;;;;;;23.27;100.00;99418.50;5040517;28;20486;-77
2023/06/12 09:52:44;;;;;;;4.18;3.78;;;;;;;23.42;100.00;99411.88;5043470;28;20077;-76
2023/06/12 09:55:18;;;;;;;5.35;4.32;;;;;;;23.52;100.00;99407.59;5026071;28;20041;-76
2023/06/12 09:57:50;;;;;;;;;;;;;;;23.60;100.00;99409.97;5043009;28;19921;-76
2023/06/12 10:00:16;;;;;;;;;;;;;;;23.67;100.00;99409.88;5041066;28;19920;-75
2023/06/12 10:02:48;;;;;;;;;;;;;;;23.70;100.00;99414.78;5042235;28;19935;-75
2023/06/12 10:05:24;;;;;;;;;;;;;;;23.73;100.00;99400.06;5040449;28;19921;-77
2023/06/12 10:07:54;;;;;;;;;;;;;;;23.80;100.00;99408.88;5044055;28;19924;-77
2023/06/12 10:10:20;;;;;;;;;;;;;;;23.79;100.00;99410.72;5041307;28;20447;-76
2023/06/12 10:12:45;;;;;;;;;;;;;;;23.82;100.00;99396.78;5042835;28;19928;-76
2023/06/12 10:15:12;;;;;;;;;;;;;;;23.83;100.00;99403.81;5044824;28;19944;-76
2023/06/12 10:17:40;;;;;;;;;;;;;;;23.78;100.00;99405.56;5043342;28;19925;-76
2023/06/12 10:20:07;;;;;;;;;;;;;;;23.75;100.00;99400.63;5041001;28;19921;-76
2023/06/12 10:22:33;;;;;;;;;;;;;;;23.72;100.00;99396.53;5026649;28;19920;-77
2023/06/12 10:24:59;;;;;;;;;;;;;;;23.81;100.00;99394.31;5037139;28;19921;-76
2023/06/12 10:27:25;;;;;;;;;;;;;;;23.90;100.00;99393.75;5024485;28;19921;-77
2023/06/12 10:29:57;;;;;;;;;;;;;;;23.95;100.00;99391.19;5043225;28;20001;-76
2023/06/12 10:32:23;;;;;;;;;;;;;;;23.99;100.00;99392.34;5039301;28;20011;-77
2023/06/12 10:34:52;;;;;;;;;;;;;;;23.95;100.00;99388.47;5019668;28;20036;-77
2023/06/12 10:37:22;;;;;;;;;;;;;;;23.93;100.00;99384.38;5024746;28;19929;-76
2023/06/12 10:39:48;;;;;;;;;;;;;;;23.94;100.00;99378.75;5038508;28;19932;-77
2023/06/12 10:42:13;;;;;;;;;;;;;;;24.00;100.00;99383.22;5039838;28;19921;-77
2023/06/12 10:44:41;;;;;;;;;;;;;;;24.02;100.00;99381.13;5037108;28;19921;-76
2023/06/12 10:47:18;;;;;;;;;;;;;;;24.02;100.00;99378.41;5039250;28;20011;-76
2023/06/12 10:50:02;;;;;;;;;;;;;;;24.07;100.00;99381.22;5043004;28;19988;-76
2023/06/12 10:52:28;;;;;;;;;;;;;;;24.14;100.00;99383.00;5039284;28;19936;-76
2023/06/12 10:55:12;;;;;;;;;;;;;;;24.14;100.00;99380.28;5042991;28;19921;-75
2023/06/12 10:57:37;;;;;;;;;;;;;;;24.19;100.00;99381.25;5045057;28;19932;-76
2023/06/12 11:00:05;;;;;;;;;;;;;;;24.11;100.00;99370.78;5042717;28;19920;-76
2023/06/12 11:02:31;;;;;;;;;;;;;;;24.19;100.00;99373.16;5040889;28;19932;-76
2023/06/12 11:05:02;;;;;;;;;;;;;;;24.21;100.00;99364.84;5039885;28;19928;-75
2023/06/12 11:07:30;;;;;;;;;;;;;;;24.21;100.00;99370.25;5037651;28;20020;-77
2023/06/12 11:09:55;;;;;;;;;;;;;;;24.20;100.00;99366.72;5043724;28;20331;-76
2023/06/12 11:12:20;;;;;;;;;;;;;;;24.13;100.00;99359.78;5020393;28;19993;-78
2023/06/12 11:14:46;;;;;;;;;;;;;;;24.06;100.00;99349.09;5015373;28;19921;-78
2023/06/12 11:17:13;;;;;;;;;;;;;;;24.05;100.00;99353.69;5041587;28;20008;-77
2023/06/12 11:19:39;;;;;;;;;;;;;;;24.05;100.00;99348.28;5038751;28;20015;-77
2023/06/12 11:22:04;;;;;;;;;;;;;;;24.05;100.00;99345.59;5034855;28;20004;-77
2023/06/12 11:24:30;;;;;;;;;;;;;;;24.08;100.00;99347.81;5039065;28;19996;-75
2023/06/12 11:27:00;;;;;;;;;;;;;;;24.15;100.00;99336.09;5039500;28;19921;-77
2023/06/12 11:29:25;;;;;;;;;;;;;;;24.25;100.00;99339.06;5041254;28;20345;-77
2023/06/12 11:32:09;;;;;;;;;;;;;;;24.29;100.00;99337.50;5039730;28;19956;-77
2023/06/12 11:34:35;;;;;;;;;;;;;;;24.34;100.00;99334.91;5038579;28;19921;-76
2023/06/12 11:37:13;;;;;;;;;;;;;;;24.39;100.00;99326.94;5039047;28;19943;-77
2023/06/12 11:39:39;;;;;;;;;;;;;;;24.46;100.00;99324.94;5039255;28;19928;-76
2023/06/12 11:42:05;;;;;;;;;;;;;;;24.57;100.00;99318.69;5037183;28;19929;-75
2023/06/12 11:44:31;;;;;;;;;;;;;;;24.62;100.00;99318.81;5038499;28;19978;-76
2023/06/12 11:47:00;;;;;;;;;;;;;;;24.69;100.00;99316.78;5038855;28;20166;-76
2023/06/12 11:49:26;;;;;;;;;;;;;;;24.76;100.00;99311.22;5039813;28;20383;-76
2023/06/12 11:51:51;;;;;;;;;;;;;;;24.84;100.00;99308.16;5038450;28;19929;-76
2023/06/12 11:54:17;;;;;;;;;;;;;;;24.91;100.00;99305.34;5036164;28;19964;-76
2023/06/12 11:56:43;;;;;;;;;;;;;;;24.98;100.00;99308.69;5041112;28;19921;-76
2023/06/12 11:59:09;;;;;;;;;;;;;;;25.10;100.00;99295.97;5036992;28;20479;-75
2023/06/12 12:01:38;;;;;;;;;;;;;;;25.19;100.00;99297.22;5039125;28;19921;-76
2023/06/12 12:04:06;;;;;;;;;;;;;;;25.30;100.00;99290.94;5033821;28;19921;-75
2023/06/12 12:06:46;;;;;;;;;;;;;;;25.42;100.00;99288.16;5037934;28;20388;-76
2023/06/12 12:09:13;;;;;;;;;;;;;;;25.57;100.00;99286.53;5041031;28;20014;-76
2023/06/12 12:11:38;;;;;;;;;;;;;;;25.75;100.00;99292.75;5036491;28;19925;-75
2023/06/12 12:14:04;;;;;;;;;;;;;;;25.91;100.00;99281.09;5037597;28;19928;-75
2023/06/12 12:16:39;;;;;;;;;;;;;;;25.93;100.00;99278.97;5039965;28;19971;-76
2023/06/12 12:19:34;;;;;;;;;;;;;;;25.90;100.00;99274.06;5038526;28;20440;-76
2023/06/12 12:22:00;;;;;;;;;;;;;;;26.12;100.00;99272.19;5021783;28;19928;-76
2023/06/12 12:24:26;;;;;;;;;;;;;;;26.23;100.00;99263.19;5042131;28;19921;-76
2023/06/12 12:26:53;;;;;;;;;;;;;;;26.35;100.00;99261.16;5040264;28;19925;-76
2023/06/12 12:29:21;;;;;;;;;;;;;;;26.37;100.00;99258.22;5038055;28;20403;-77
2023/06/12 12:31:46;;;;;;;;;;;;;;;26.47;100.00;99252.91;5040485;28;20369;-76